Time;durP1;ratioP1;P1;durP2;ratioP2;P2;SDS_P1;SDS_P2;PMS_P1;PMS_P2;Temp;Humidity;BMP_temperature;BMP_pressure;BME280_temperature;BME280_humidity;BME280_pressure;Samples;Min_cycle;Max_cycle;Signal;HPM_P1;HPM_P2
2022/01/26 00:00:05;;;;;;;64.03;28.75;;;4.20;99.90;;;;;;5048228;28;20068;-65
2022/01/26 00:07:59;;;;;;;63.30;27.65;;;4.30;99.90;;;;;;5053180;28;20056;-65
2022/01/26 00:10:25;;;;;;;65.93;27.02;;;4.30;99.90;;;;;;5048046;28;20044;-64
2022/01/26 00:12:51;;;;;;;64.55;29.20;;;4.20;99.90;;;;;;5048735;28;20036;-64
2022/01/26 00:15:17;;;;;;;61.75;27.23;;;4.10;99.90;;;;;;5049400;28;20067;-65
2022/01/26 00:17:43;;;;;;;63.17;27.30;;;4.10;99.90;;;;;;5048918;28;20041;-65
2022/01/26 00:27:53;;;;;;;60.22;27.38;;;4.20;99.90;;;;;;5045495;28;20151;-65
2022/01/26 00:38:40;;;;;;;63.58;27.10;;;4.30;99.90;;;;;;5039757;28;20046;-64
2022/01/26 00:41:10;;;;;;;58.97;26.80;;;4.30;99.90;;;;;;5041191;28;20059;-66
2022/01/26 00:43:41;;;;;;;69.00;28.70;;;4.30;99.90;;;;;;5042004;28;20041;-65
2022/01/26 00:46:07;;;;;;;58.92;27.05;;;4.30;99.90;;;;;;5049582;28;20171;-67
2022/01/26 00:48:36;;;;;;;64.05;27.45;;;4.30;99.90;;;;;;5036448;28;20464;-65
2022/01/26 00:51:04;;;;;;;58.95;26.70;;;4.30;99.90;;;;;;5045301;28;20118;-65
2022/01/26 00:53:39;;;;;;;58.70;28.02;;;4.20;99.90;;;;;;5047290;28;20052;-65
2022/01/26 00:56:05;;;;;;;66.85;28.20;;;4.20;99.90;;;;;;5043880;28;20465;-65
2022/01/26 00:58:31;;;;;;;66.13;28.75;;;4.20;99.90;;;;;;5043981;28;20144;-65
2022/01/26 01:00:59;;;;;;;64.57;28.25;;;4.20;99.90;;;;;;5042194;28;20041;-65
2022/01/26 01:03:25;;;;;;;67.07;27.88;;;4.20;99.90;;;;;;5041555;28;20140;-65
2022/01/26 01:08:20;;;;;;;67.10;28.65;;;4.20;99.90;;;;;;5047765;28;20079;-65
2022/01/26 01:10:48;;;;;;;67.35;28.38;;;4.20;99.90;;;;;;5044222;28;20041;-65
2022/01/26 01:13:18;;;;;;;67.45;29.20;;;4.20;99.90;;;;;;5040901;28;20199;-65
2022/01/26 01:15:44;;;;;;;65.82;28.60;;;4.10;99.90;;;;;;5040382;28;20047;-65
2022/01/26 01:18:18;;;;;;;66.25;29.80;;;4.10;99.90;;;;;;5045976;28;20037;-67
2022/01/26 01:21:04;;;;;;;66.68;29.10;;;4.10;99.90;;;;;;5044548;28;20037;-65
2022/01/26 01:31:11;;;;;;;67.60;29.05;;;3.90;99.90;;;;;;5042825;28;20123;-65
2022/01/26 01:33:43;;;;;;;69.45;28.92;;;3.90;99.90;;;;;;5040419;28;20060;-65
2022/01/26 01:36:10;;;;;;;67.20;29.52;;;3.90;99.90;;;;;;5042198;28;20052;-64
2022/01/26 01:38:39;;;;;;;66.20;28.65;;;3.80;99.90;;;;;;5045683;28;20041;-65
2022/01/26 01:41:05;;;;;;;69.10;28.42;;;3.90;99.90;;;;;;5049644;28;20041;-65
2022/01/26 01:43:30;;;;;;;72.30;30.45;;;3.90;99.90;;;;;;5047400;28;20103;-65
2022/01/26 01:45:56;;;;;;;68.97;30.25;;;4.00;99.90;;;;;;5033190;28;20045;-65
2022/01/26 01:48:27;;;;;;;71.47;30.30;;;4.00;99.90;;;;;;5045338;28;20067;-65
2022/01/26 01:50:55;;;;;;;69.50;29.33;;;4.00;99.90;;;;;;5042617;28;20453;-66
2022/01/26 01:53:28;;;;;;;75.18;30.58;;;3.90;99.90;;;;;;5047379;28;20489;-65
2022/01/26 01:55:54;;;;;;;70.30;30.40;;;4.00;99.90;;;;;;5041132;28;20041;-66
2022/01/26 01:58:20;;;;;;;74.63;31.15;;;3.90;99.90;;;;;;5040163;28;20059;-65
2022/01/26 02:00:47;;;;;;;70.85;30.77;;;3.90;99.90;;;;;;5043829;28;20041;-65
2022/01/26 02:03:12;;;;;;;70.10;29.40;;;3.90;99.90;;;;;;5041228;28;20760;-67
2022/01/26 02:05:38;;;;;;;72.68;29.75;;;3.90;99.90;;;;;;5053911;28;20076;-64
2022/01/26 02:08:04;;;;;;;73.45;29.85;;;3.80;99.90;;;;;;5051030;28;20089;-65
2022/01/26 02:10:31;;;;;;;73.93;30.73;;;3.80;99.90;;;;;;5045604;28;20120;-67
2022/01/26 02:13:01;;;;;;;68.57;29.10;;;3.80;99.90;;;;;;5048137;28;20507;-65
2022/01/26 02:15:35;;;;;;;73.15;29.25;;;3.80;99.90;;;;;;5045068;28;20090;-65
2022/01/26 02:51:17;;;;;;;68.85;27.48;;;3.80;99.90;;;;;;5053807;28;20087;-65
2022/01/26 02:54:24;;;;;;;67.38;28.02;;;3.80;99.90;;;;;;5048656;28;20041;-64
2022/01/26 02:59:35;;;;;;;72.00;28.05;;;3.70;99.90;;;;;;5051601;28;20073;-67
2022/01/26 03:02:10;;;;;;;66.57;27.38;;;3.70;99.90;;;;;;5046330;28;20197;-65
2022/01/26 03:04:46;;;;;;;71.90;27.92;;;3.70;99.90;;;;;;5045202;28;20099;-65
2022/01/26 03:10:03;;;;;;;64.70;26.83;;;3.70;99.90;;;;;;5043623;28;20076;-65
2022/01/26 03:12:47;;;;;;;63.13;26.98;;;3.60;99.90;;;;;;5041344;28;20350;-65
2022/01/26 03:15:19;;;;;;;62.72;25.88;;;3.70;99.90;;;;;;5041796;28;20053;-66
2022/01/26 03:18:15;;;;;;;66.85;26.63;;;3.70;99.90;;;;;;5041979;28;20041;-65
2022/01/26 03:20:41;;;;;;;66.45;25.88;;;3.80;99.90;;;;;;5045661;28;20053;-65
2022/01/26 03:28:43;;;;;;;62.40;26.00;;;3.70;99.90;;;;;;5042519;28;20041;-65
2022/01/26 03:31:55;;;;;;;58.35;24.33;;;3.80;99.90;;;;;;5047565;28;20481;-65
2022/01/26 03:34:13;;;;;;;59.40;23.58;;;3.80;99.90;;;;;;5043188;28;20123;-64
2022/01/26 03:36:48;;;;;;;63.42;26.30;;;3.80;99.90;;;;;;5043120;28;20049;-65
2022/01/26 03:39:17;;;;;;;59.30;24.75;;;3.90;99.90;;;;;;5040885;28;20037;-65
2022/01/26 03:41:47;;;;;;;58.08;24.38;;;3.90;99.90;;;;;;5038055;28;20635;-66
2022/01/26 03:44:14;;;;;;;59.00;24.25;;;3.90;99.90;;;;;;5053594;28;20056;-65
2022/01/26 03:46:40;;;;;;;57.58;23.50;;;3.80;99.90;;;;;;5045474;28;20041;-65
2022/01/26 03:49:07;;;;;;;59.88;24.08;;;3.80;99.90;;;;;;5051341;28;20366;-66
2022/01/26 03:51:34;;;;;;;55.42;23.00;;;3.70;99.90;;;;;;5046075;28;20450;-65
2022/01/26 03:54:00;;;;;;;54.88;22.77;;;3.70;99.90;;;;;;5048974;28;21832;-65
2022/01/26 03:56:26;;;;;;;59.60;24.63;;;3.80;99.90;;;;;;5050095;28;20128;-64
2022/01/26 03:58:51;;;;;;;57.78;23.90;;;3.70;99.90;;;;;;5042452;28;20436;-65
2022/01/26 04:01:17;;;;;;;59.08;23.67;;;3.80;99.90;;;;;;5045518;28;20114;-65
2022/01/26 04:03:43;;;;;;;59.47;23.58;;;3.80;99.90;;;;;;5048651;28;20049;-64
2022/01/26 04:06:08;;;;;;;58.28;24.13;;;3.80;99.90;;;;;;5046973;28;20109;-64
2022/01/26 04:08:36;;;;;;;57.88;22.55;;;3.80;99.90;;;;;;5045519;28;20052;-64
2022/01/26 04:13:47;;;;;;;53.20;22.33;;;3.90;99.90;;;;;;5045066;28;20060;-66
2022/01/26 04:16:12;;;;;;;52.42;21.58;;;3.90;99.90;;;;;;5043579;28;20037;-64
2022/01/26 04:18:40;;;;;;;52.85;22.40;;;3.90;99.90;;;;;;5047762;28;20048;-64
2022/01/26 04:21:27;;;;;;;54.33;22.27;;;3.90;99.90;;;;;;5047470;28;20130;-65
2022/01/26 04:26:23;;;;;;;56.05;23.45;;;3.90;99.90;;;;;;5045057;28;20127;-64
2022/01/26 04:28:55;;;;;;;54.95;22.60;;;3.90;99.90;;;;;;5045410;28;20476;-64
2022/01/26 04:31:21;;;;;;;56.22;22.35;;;3.90;99.90;;;;;;5040127;28;20121;-64
2022/01/26 04:33:48;;;;;;;53.55;21.45;;;3.80;99.90;;;;;;5048210;28;20496;-66
2022/01/26 04:36:19;;;;;;;53.55;22.20;;;3.90;99.90;;;;;;5050362;28;20485;-65
2022/01/26 04:38:50;;;;;;;57.90;21.08;;;3.90;99.90;;;;;;5046902;28;20603;-65
2022/01/26 04:43:55;;;;;;;52.55;21.35;;;3.90;99.90;;;;;;5045403;28;20349;-65
2022/01/26 04:46:20;;;;;;;54.83;22.23;;;3.90;99.90;;;;;;5044588;28;20044;-66
2022/01/26 04:48:46;;;;;;;57.85;22.13;;;3.90;99.90;;;;;;5047584;28;20103;-64
2022/01/26 04:51:11;;;;;;;51.30;22.38;;;3.90;99.90;;;;;;5049271;28;20048;-64
2022/01/26 04:53:37;;;;;;;53.00;21.05;;;4.00;99.90;;;;;;5042001;28;20064;-66
2022/01/26 04:56:02;;;;;;;56.55;21.23;;;3.90;99.90;;;;;;5042891;28;20048;-65
2022/01/26 04:58:28;;;;;;;49.13;21.27;;;3.80;99.90;;;;;;5043031;28;20076;-64
2022/01/26 05:00:54;;;;;;;49.25;20.02;;;3.80;99.90;;;;;;5053652;28;20047;-65
2022/01/26 05:03:19;;;;;;;49.97;21.17;;;3.80;99.90;;;;;;5047322;28;20111;-64
2022/01/26 05:05:45;;;;;;;52.83;20.60;;;3.80;99.90;;;;;;5042669;28;20041;-65
2022/01/26 05:08:10;;;;;;;54.28;21.00;;;3.90;99.90;;;;;;5044966;28;20069;-65
2022/01/26 05:10:38;;;;;;;46.97;18.85;;;3.90;99.90;;;;;;5039087;28;20034;-65
2022/01/26 05:13:04;;;;;;;48.05;19.98;;;3.80;99.90;;;;;;5041541;28;20049;-67
2022/01/26 05:15:30;;;;;;;49.60;19.15;;;3.90;99.90;;;;;;5032743;28;20047;-65
2022/01/26 05:17:55;;;;;;;45.53;19.20;;;3.80;99.90;;;;;;5038616;28;20071;-66
2022/01/26 05:20:21;;;;;;;48.28;18.52;;;3.80;99.90;;;;;;5040932;28;20151;-65
2022/01/26 05:22:47;;;;;;;47.83;19.05;;;3.90;99.90;;;;;;5046769;28;20068;-65
2022/01/26 05:25:14;;;;;;;48.80;18.98;;;3.90;99.90;;;;;;5042881;28;20045;-65
2022/01/26 05:27:40;;;;;;;42.85;17.48;;;3.90;99.90;;;;;;5048671;28;20049;-65
2022/01/26 05:30:07;;;;;;;50.70;18.55;;;3.90;99.90;;;;;;5044115;28;20118;-66
2022/01/26 05:32:33;;;;;;;46.40;18.10;;;3.90;99.90;;;;;;5043866;28;20449;-64
2022/01/26 05:34:58;;;;;;;45.95;18.17;;;3.90;99.90;;;;;;5047017;28;20048;-64
2022/01/26 05:37:24;;;;;;;45.85;17.60;;;3.80;99.90;;;;;;5047433;28;20156;-65
2022/01/26 05:39:50;;;;;;;44.97;19.30;;;3.70;99.90;;;;;;5050326;28;20049;-65
2022/01/26 05:42:17;;;;;;;48.30;18.33;;;3.80;99.90;;;;;;5043466;28;20080;-66
2022/01/26 05:44:44;;;;;;;41.50;17.73;;;3.70;99.90;;;;;;5049780;28;20059;-65
2022/01/26 05:47:15;;;;;;;42.63;18.42;;;3.70;99.90;;;;;;5045036;28;20742;-66
2022/01/26 05:49:41;;;;;;;42.13;17.50;;;3.70;99.90;;;;;;5039118;28;20076;-66
2022/01/26 05:52:06;;;;;;;48.60;18.60;;;3.70;99.90;;;;;;5038527;28;20111;-68
2022/01/26 05:54:32;;;;;;;46.20;18.08;;;3.70;99.90;;;;;;5039024;28;20041;-65
2022/01/26 05:56:58;;;;;;;46.30;18.38;;;3.70;99.90;;;;;;5041281;28;20453;-65
2022/01/26 05:59:23;;;;;;;41.50;17.77;;;3.70;99.90;;;;;;5040368;28;20041;-65
2022/01/26 06:01:50;;;;;;;40.47;17.83;;;3.70;99.90;;;;;;5042372;28;20125;-64
2022/01/26 06:04:16;;;;;;;43.47;17.33;;;3.70;99.90;;;;;;5042877;28;20104;-66
2022/01/26 06:06:42;;;;;;;49.53;20.45;;;3.70;99.90;;;;;;5045010;28;20041;-67
2022/01/26 06:09:07;;;;;;;44.50;19.17;;;3.60;99.90;;;;;;5046993;28;20041;-66
2022/01/26 06:11:33;;;;;;;45.58;18.35;;;3.70;99.90;;;;;;5044006;28;20368;-66
2022/01/26 06:13:59;;;;;;;45.95;17.77;;;3.60;99.90;;;;;;5041944;28;20356;-65
2022/01/26 06:16:24;;;;;;;41.88;17.70;;;3.70;99.90;;;;;;5038566;28;20041;-65
2022/01/26 06:18:50;;;;;;;48.17;18.25;;;3.70;99.90;;;;;;5046827;28;20036;-65
2022/01/26 06:21:15;;;;;;;47.97;18.95;;;3.60;99.90;;;;;;5039467;28;20039;-65
2022/01/26 06:23:41;;;;;;;49.85;19.88;;;3.70;99.90;;;;;;5047834;28;20075;-65
2022/01/26 06:26:07;;;;;;;45.60;18.33;;;3.70;99.90;;;;;;5038733;28;20120;-64
2022/01/26 06:28:33;;;;;;;49.95;18.77;;;3.70;99.90;;;;;;5043262;28;20120;-65
2022/01/26 06:31:03;;;;;;;43.78;18.13;;;3.70;99.90;;;;;;5041403;28;20041;-64
2022/01/26 06:33:32;;;;;;;44.80;18.23;;;3.60;99.90;;;;;;5033164;28;20037;-67
2022/01/26 06:35:59;;;;;;;49.60;19.60;;;3.70;99.90;;;;;;5036780;28;20057;-64
2022/01/26 06:38:25;;;;;;;44.67;18.27;;;3.70;99.90;;;;;;5033463;28;20053;-65
2022/01/26 06:40:52;;;;;;;49.38;20.70;;;3.70;99.90;;;;;;5033847;28;20469;-65
2022/01/26 06:43:19;;;;;;;51.28;20.42;;;3.70;99.90;;;;;;5039815;28;20037;-66
2022/01/26 06:45:50;;;;;;;45.25;20.15;;;3.70;99.90;;;;;;5040713;28;20045;-66
2022/01/26 06:50:57;;;;;;;50.50;20.77;;;3.70;99.90;;;;;;5037751;28;20080;-68
2022/01/26 06:53:23;;;;;;;45.45;20.05;;;3.60;99.90;;;;;;5034621;28;20083;-69
2022/01/26 06:55:49;;;;;;;55.72;23.20;;;3.60;99.90;;;;;;5035099;28;20056;-64
2022/01/26 06:58:15;;;;;;;54.50;23.05;;;3.60;99.90;;;;;;5032750;28;20450;-64
2022/01/26 07:00:40;;;;;;;54.42;23.67;;;3.60;99.90;;;;;;5034982;28;20049;-64
2022/01/26 07:03:06;;;;;;;54.10;23.20;;;3.60;99.90;;;;;;5031813;28;20057;-65
2022/01/26 07:05:32;;;;;;;55.03;25.95;;;3.60;99.90;;;;;;5036668;28;21330;-64
2022/01/26 07:07:57;;;;;;;62.15;28.83;;;3.70;99.90;;;;;;5040139;28;20123;-65
2022/01/26 07:10:23;;;;;;;62.53;28.77;;;3.70;99.90;;;;;;5034987;28;20115;-64
2022/01/26 07:12:48;;;;;;;65.47;29.02;;;3.70;99.90;;;;;;5038003;28;20034;-65
2022/01/26 07:23:29;;;;;;;67.40;30.42;;;3.60;99.90;;;;;;5040733;28;20041;-65
2022/01/26 07:25:55;;;;;;;78.10;33.97;;;3.60;99.90;;;;;;5043507;28;20040;-65
2022/01/26 07:28:21;;;;;;;70.50;32.33;;;3.60;99.90;;;;;;5033872;28;20046;-65
2022/01/26 07:30:46;;;;;;;72.35;34.28;;;3.70;99.90;;;;;;5032299;28;20049;-64
2022/01/26 07:33:13;;;;;;;79.43;36.97;;;3.70;99.90;;;;;;5031160;28;20056;-64
2022/01/26 07:35:38;;;;;;;81.72;36.95;;;3.60;99.90;;;;;;5050846;28;20472;-65
2022/01/26 07:38:05;;;;;;;78.93;36.17;;;3.60;99.90;;;;;;5054776;28;20051;-65
2022/01/26 07:40:31;;;;;;;81.93;38.22;;;3.70;99.90;;;;;;5054255;28;20087;-66
2022/01/26 07:42:57;;;;;;;85.72;37.88;;;3.60;99.90;;;;;;5057419;28;20467;-65
2022/01/26 07:45:23;;;;;;;91.88;39.78;;;3.70;99.90;;;;;;5054771;28;20045;-67
2022/01/26 07:47:52;;;;;;;86.00;38.63;;;3.70;99.90;;;;;;5053136;28;20048;-65
2022/01/26 07:50:19;;;;;;;87.40;38.33;;;3.70;99.90;;;;;;5055576;28;20044;-65
2022/01/26 07:52:45;;;;;;;87.13;37.63;;;3.70;99.90;;;;;;5057070;28;20045;-65
2022/01/26 07:55:15;;;;;;;90.57;39.53;;;3.70;99.90;;;;;;5051265;28;20055;-65
2022/01/26 07:57:43;;;;;;;89.88;40.47;;;3.70;99.90;;;;;;5054662;28;20427;-65
2022/01/26 08:00:09;;;;;;;87.63;39.25;;;3.80;99.90;;;;;;5052543;28;20095;-65
2022/01/26 08:02:35;;;;;;;101.05;43.08;;;3.80;99.90;;;;;;5041975;28;20119;-65
2022/01/26 08:05:00;;;;;;;89.82;41.92;;;3.80;99.90;;;;;;5040899;28;21553;-65
2022/01/26 08:07:27;;;;;;;95.60;43.38;;;3.80;99.90;;;;;;5031757;28;20050;-65
2022/01/26 08:09:53;;;;;;;68.15;29.10;;;3.80;99.90;;;;;;5039516;28;20124;-66
2022/01/26 08:12:18;;;;;;;97.47;42.28;;;3.80;99.90;;;;;;5045900;28;20864;-64
2022/01/26 08:14:45;;;;;;;90.85;40.13;;;3.90;99.90;;;;;;5044537;28;20044;-65
2022/01/26 08:17:11;;;;;;;98.32;43.13;;;3.90;99.90;;;;;;5048527;28;20500;-65
2022/01/26 08:19:37;;;;;;;93.10;41.40;;;3.90;99.90;;;;;;5031249;28;20060;-64
2022/01/26 08:22:04;;;;;;;99.50;44.17;;;3.90;99.90;;;;;;5045276;28;20044;-64
2022/01/26 08:24:30;;;;;;;94.90;42.88;;;3.90;99.90;;;;;;5064043;28;20084;-65
2022/01/26 08:27:05;;;;;;;98.03;43.60;;;4.00;99.90;;;;;;5040482;28;20049;-63
2022/01/26 08:29:38;;;;;;;;;;;3.90;99.90;;;;;;5033981;28;20049;-64
2022/01/26 08:32:04;;;;;;;97.18;42.25;;;3.90;99.90;;;;;;5041514;28;20341;-65
2022/01/26 08:34:30;;;;;;;99.80;45.28;;;3.90;99.90;;;;;;5042745;28;20453;-66
2022/01/26 08:36:56;;;;;;;100.90;45.33;;;4.00;99.90;;;;;;5040736;28;20107;-65
2022/01/26 08:39:22;;;;;;;96.40;41.33;;;4.00;99.90;;;;;;5035741;28;20403;-66
2022/01/26 08:41:48;;;;;;;94.15;42.35;;;4.00;99.90;;;;;;5032763;28;20541;-66
2022/01/26 08:44:14;;;;;;;106.20;46.28;;;4.00;99.90;;;;;;5036666;28;20154;-65
2022/01/26 08:46:39;;;;;;;99.68;44.92;;;4.00;99.90;;;;;;5050863;28;20064;-65
2022/01/26 08:49:05;;;;;;;102.07;43.60;;;4.00;99.90;;;;;;5036638;28;20038;-67
2022/01/26 08:51:31;;;;;;;101.20;45.08;;;4.00;99.90;;;;;;5035939;28;20045;-65
2022/01/26 08:53:57;;;;;;;106.82;44.58;;;4.00;99.90;;;;;;5050766;28;20071;-66
2022/01/26 08:56:23;;;;;;;107.05;46.38;;;4.00;99.90;;;;;;5048525;28;20076;-66
2022/01/26 08:58:48;;;;;;;99.25;45.10;;;4.00;99.90;;;;;;5049996;28;20056;-65
2022/01/26 09:01:14;;;;;;;105.57;45.88;;;4.00;99.90;;;;;;5049847;28;20129;-66
2022/01/26 09:03:39;;;;;;;104.78;44.53;;;4.10;99.90;;;;;;5047523;28;20476;-66
2022/01/26 09:06:06;;;;;;;101.32;43.10;;;4.10;99.90;;;;;;5031428;28;20033;-64
2022/01/26 09:08:33;;;;;;;99.65;42.92;;;4.10;99.90;;;;;;5031581;28;20089;-65
2022/01/26 09:11:01;;;;;;;104.93;42.70;;;4.10;99.90;;;;;;5037093;28;20054;-67
2022/01/26 09:13:32;;;;;;;96.43;42.28;;;4.10;99.90;;;;;;5053335;28;20053;-66
2022/01/26 09:16:02;;;;;;;100.47;42.92;;;4.10;99.90;;;;;;5061565;28;20377;-66
2022/01/26 09:18:45;;;;;;;97.32;41.53;;;4.10;99.90;;;;;;5039073;28;20364;-66
2022/01/26 09:21:11;;;;;;;98.57;42.65;;;4.20;99.90;;;;;;5045171;28;20465;-66
2022/01/26 09:23:36;;;;;;;100.25;42.15;;;4.20;99.90;;;;;;5053642;28;20041;-65
2022/01/26 09:26:03;;;;;;;103.47;44.72;;;4.20;99.90;;;;;;5027638;28;20041;-65
2022/01/26 09:28:29;;;;;;;96.05;40.53;;;4.20;99.90;;;;;;5049288;28;20395;-65
2022/01/26 09:30:54;;;;;;;104.55;43.60;;;4.20;99.90;;;;;;5051464;28;20045;-66
2022/01/26 09:33:20;;;;;;;97.53;41.13;;;4.20;99.90;;;;;;5052700;28;20049;-66
2022/01/26 09:35:46;;;;;;;102.60;42.55;;;4.20;99.90;;;;;;5049455;28;20121;-67
2022/01/26 09:38:12;;;;;;;101.07;42.47;;;4.20;99.90;;;;;;5043634;28;20041;-67
2022/01/26 09:40:38;;;;;;;102.35;41.67;;;4.20;99.90;;;;;;5035693;28;20537;-67
2022/01/26 09:43:03;;;;;;;94.78;41.90;;;4.20;99.90;;;;;;5047273;28;20136;-67
2022/01/26 09:45:34;;;;;;;95.82;42.03;;;4.20;99.90;;;;;;5036329;28;20560;-66
2022/01/26 09:48:00;;;;;;;96.70;42.63;;;4.30;99.90;;;;;;5048545;28;20041;-66
2022/01/26 09:50:25;;;;;;;89.57;39.92;;;4.30;99.90;;;;;;5049553;28;20761;-66
2022/01/26 09:52:53;;;;;;;93.95;40.17;;;4.30;99.90;;;;;;5049917;28;20075;-66
2022/01/26 09:55:19;;;;;;;92.80;39.70;;;4.30;99.90;;;;;;5052649;28;20041;-66
2022/01/26 09:57:44;;;;;;;93.18;39.17;;;4.40;99.90;;;;;;5052458;28;20048;-67
2022/01/26 10:00:11;;;;;;;81.38;35.40;;;4.40;99.90;;;;;;5052019;28;20049;-66
2022/01/26 10:02:39;;;;;;;79.03;35.00;;;4.40;99.90;;;;;;5051008;28;20052;-66
2022/01/26 10:05:07;;;;;;;76.50;35.00;;;4.40;99.90;;;;;;5055036;28;20048;-67
2022/01/26 10:15:36;;;;;;;68.85;30.92;;;4.60;99.90;;;;;;5054381;28;20056;-66
2022/01/26 10:18:15;;;;;;;71.15;31.08;;;4.60;99.90;;;;;;5053876;28;20467;-66
2022/01/26 10:21:09;;;;;;;64.15;30.05;;;4.60;99.90;;;;;;5053459;28;20064;-67
2022/01/26 10:23:41;;;;;;;66.20;30.40;;;4.50;99.90;;;;;;5039830;28;20049;-66
2022/01/26 10:26:14;;;;;;;62.85;30.58;;;4.50;99.90;;;;;;5052110;28;20041;-66
2022/01/26 10:28:44;;;;;;;64.40;31.95;;;4.50;99.90;;;;;;5053685;28;20094;-67
2022/01/26 10:31:22;;;;;;;64.55;30.73;;;4.60;99.90;;;;;;5050446;28;20136;-66
2022/01/26 10:34:04;;;;;;;67.50;30.95;;;4.60;99.90;;;;;;5050348;28;20370;-67
2022/01/26 10:36:41;;;;;;;68.15;31.23;;;4.60;99.90;;;;;;5051214;28;20045;-66
2022/01/26 10:39:07;;;;;;;67.45;32.50;;;4.70;99.90;;;;;;5052017;28;20067;-67
2022/01/26 10:41:37;;;;;;;69.55;32.20;;;4.70;99.90;;;;;;5053422;28;20045;-66
2022/01/26 10:44:03;;;;;;;75.45;32.25;;;4.70;99.90;;;;;;5053390;28;20049;-67
2022/01/26 10:46:37;;;;;;;66.15;31.70;;;4.70;99.90;;;;;;5053858;28;20102;-67
2022/01/26 10:54:34;;;;;;;;;;;4.70;99.90;;;;;;5048655;28;20048;-67
2022/01/26 10:57:00;;;;;;;63.72;30.88;;;4.70;99.90;;;;;;5037764;28;20422;-69
2022/01/26 10:59:26;;;;;;;68.30;31.85;;;4.70;99.90;;;;;;5048825;28;20094;-66
2022/01/26 11:01:52;;;;;;;65.30;29.85;;;4.70;99.90;;;;;;5041989;28;20181;-66
2022/01/26 11:04:18;;;;;;;60.80;28.63;;;4.70;99.90;;;;;;5049588;28;20059;-66
2022/01/26 11:06:50;;;;;;;62.25;28.45;;;4.80;99.90;;;;;;5043849;28;20037;-66
2022/01/26 11:09:20;;;;;;;64.35;30.30;;;4.80;99.90;;;;;;5040641;28;20049;-67
2022/01/26 11:11:46;;;;;;;61.33;27.95;;;4.80;99.90;;;;;;5042902;28;20048;-68
2022/01/26 11:14:22;;;;;;;66.13;28.88;;;4.80;99.90;;;;;;5056646;28;20037;-67
2022/01/26 11:17:09;;;;;;;58.40;28.67;;;4.90;99.90;;;;;;5059277;28;20044;-67
2022/01/26 11:19:44;;;;;;;55.83;27.25;;;4.80;99.90;;;;;;5052649;28;20172;-68
2022/01/26 11:22:11;;;;;;;52.33;25.98;;;4.90;99.90;;;;;;5055917;28;20048;-67
2022/01/26 11:24:48;;;;;;;60.70;28.77;;;5.00;99.90;;;;;;5052955;28;20037;-67
2022/01/26 11:27:16;;;;;;;56.75;27.15;;;5.00;99.90;;;;;;5050037;28;20112;-67
2022/01/26 11:29:46;;;;;;;54.13;27.05;;;5.00;99.90;;;;;;5051111;28;20040;-66
2022/01/26 11:32:31;;;;;;;56.58;27.67;;;5.00;99.90;;;;;;5054605;28;20054;-66
2022/01/26 11:34:57;;;;;;;55.63;27.63;;;5.00;99.90;;;;;;5050972;28;20167;-66
2022/01/26 11:37:45;;;;;;;56.17;27.60;;;5.00;99.90;;;;;;5052025;28;20040;-67
2022/01/26 11:46:06;;;;;;;55.45;27.55;;;5.00;99.90;;;;;;5071055;28;20151;-66
2022/01/26 11:48:32;;;;;;;61.22;29.15;;;5.00;99.90;;;;;;5055750;28;20051;-63
2022/01/26 11:51:03;;;;;;;58.83;28.85;;;5.00;99.90;;;;;;5053732;28;20620;-65
2022/01/26 11:53:29;;;;;;;60.83;29.38;;;5.00;99.90;;;;;;5051909;28;20075;-64
2022/01/26 11:56:03;;;;;;;58.75;28.52;;;5.00;99.90;;;;;;5051796;28;20049;-64
2022/01/26 11:58:41;;;;;;;61.85;29.40;;;5.00;99.90;;;;;;5050364;28;20431;-64
2022/01/26 12:01:17;;;;;;;59.63;28.92;;;5.00;99.90;;;;;;5049427;28;20037;-65
2022/01/26 12:03:55;;;;;;;58.83;28.05;;;5.00;99.90;;;;;;5044143;28;20093;-65
2022/01/26 12:06:29;;;;;;;59.83;28.90;;;5.00;99.90;;;;;;5047736;28;20041;-65
2022/01/26 12:08:58;;;;;;;59.70;28.08;;;5.00;99.90;;;;;;5048540;28;20033;-65
2022/01/26 12:11:25;;;;;;;64.03;29.40;;;5.00;99.90;;;;;;5040598;28;20052;-65
2022/01/26 12:14:02;;;;;;;59.58;27.65;;;5.00;99.90;;;;;;5040395;28;20618;-65
2022/01/26 12:16:41;;;;;;;64.00;28.23;;;5.00;99.90;;;;;;5059239;28;20109;-65
2022/01/26 12:38:43;;;;;;;55.08;25.60;;;5.20;99.90;;;;;;5048356;28;20075;-66
2022/01/26 12:43:53;;;;;;;54.72;27.23;;;5.20;99.90;;;;;;5055263;28;20496;-66
2022/01/26 12:46:27;;;;;;;53.15;25.52;;;5.30;99.90;;;;;;5057198;28;20048;-66
2022/01/26 12:48:56;;;;;;;55.72;25.75;;;5.30;99.90;;;;;;5053935;28;20037;-66
2022/01/26 12:51:22;;;;;;;53.60;25.30;;;5.20;99.90;;;;;;5054513;28;20403;-66
2022/01/26 12:53:56;;;;;;;58.20;27.02;;;5.30;99.90;;;;;;5054808;28;20729;-66
2022/01/26 12:56:28;;;;;;;55.92;25.85;;;5.30;99.90;;;;;;5034829;28;20110;-66
2022/01/26 12:59:05;;;;;;;56.13;26.08;;;5.40;99.90;;;;;;5056401;28;20127;-65
2022/01/26 13:01:31;;;;;;;59.67;26.88;;;5.30;99.90;;;;;;5051603;28;20041;-66
2022/01/26 13:03:59;;;;;;;54.88;26.45;;;5.30;99.90;;;;;;5049443;28;20063;-65
2022/01/26 13:06:27;;;;;;;59.03;26.83;;;5.20;99.90;;;;;;5041135;28;20111;-65
2022/01/26 13:08:58;;;;;;;58.10;28.50;;;5.10;99.90;;;;;;5041867;28;20096;-67
2022/01/26 13:11:28;;;;;;;52.85;26.67;;;5.10;99.90;;;;;;5039463;28;20041;-65
2022/01/26 13:14:12;;;;;;;58.88;27.85;;;5.10;99.90;;;;;;5037929;28;20388;-65
2022/01/26 13:16:41;;;;;;;59.53;28.05;;;5.10;99.90;;;;;;5041163;28;20116;-65
2022/01/26 13:26:41;;;;;;;61.20;28.55;;;5.20;99.90;;;;;;5043429;28;20481;-67
2022/01/26 13:29:32;;;;;;;59.53;27.40;;;5.20;99.90;;;;;;5048537;28;20087;-65
2022/01/26 13:48:20;;;;;;;55.72;26.65;;;5.30;99.90;;;;;;5039376;28;20193;-65
2022/01/26 13:51:03;;;;;;;61.35;26.73;;;5.30;99.90;;;;;;5043881;28;20222;-65
2022/01/26 13:56:19;;;;;;;56.35;28.17;;;5.40;99.90;;;;;;5045851;28;20090;-65
2022/01/26 14:01:19;;;;;;;54.50;27.27;;;5.50;99.90;;;;;;5048128;28;21701;-64
2022/01/26 14:03:48;;;;;;;55.70;26.20;;;5.60;99.90;;;;;;5049048;28;20083;-64
2022/01/26 14:06:13;;;;;;;52.50;26.08;;;5.50;99.90;;;;;;5048831;28;20094;-66
2022/01/26 14:08:40;;;;;;;55.40;25.95;;;5.60;99.90;;;;;;5043167;28;20044;-65
2022/01/26 14:11:07;;;;;;;56.08;26.35;;;5.70;99.90;;;;;;5050033;28;20554;-65
2022/01/26 14:13:35;;;;;;;50.28;23.88;;;5.70;99.90;;;;;;5039309;28;20115;-66
2022/01/26 14:16:00;;;;;;;52.92;26.95;;;5.70;99.90;;;;;;5041890;28;20126;-66
2022/01/26 14:21:23;;;;;;;53.70;26.83;;;5.70;99.90;;;;;;5041464;28;20053;-66
2022/01/26 14:26:18;;;;;;;53.72;26.20;;;5.70;99.90;;;;;;5043961;28;20049;-67
2022/01/26 14:28:43;;;;;;;57.95;26.40;;;5.70;99.90;;;;;;5029742;28;20044;-67
2022/01/26 14:34:07;;;;;;;55.78;25.80;;;5.70;99.90;;;;;;5038591;28;20056;-65
2022/01/26 14:36:47;;;;;;;53.08;25.50;;;5.70;99.90;;;;;;5039585;28;20083;-65
2022/01/26 15:34:15;;;;;;;52.25;23.98;;;5.50;99.90;;;;;;5042219;28;20203;-67
2022/01/26 15:42:33;;;;;;;56.28;25.13;;;5.50;99.90;;;;;;5039922;28;20092;-65
2022/01/26 15:50:42;;;;;;;51.85;23.55;;;5.50;99.90;;;;;;5040943;28;20470;-66
2022/01/26 15:53:18;;;;;;;50.00;23.17;;;5.50;99.90;;;;;;5048723;28;20346;-64
2022/01/26 16:20:34;;;;;;;46.00;23.15;;;5.70;99.90;;;;;;5049636;28;20068;-67
2022/01/26 17:25:46;;;;;;;42.03;23.50;;;5.80;99.90;;;;;;5051784;28;20334;-65
2022/01/26 17:47:28;;;;;;;42.60;22.70;;;5.80;99.90;;;;;;5046116;28;20448;-67
2022/01/26 18:17:01;;;;;;;44.17;21.85;;;5.90;99.90;;;;;;5044781;28;20138;-64
2022/01/26 18:33:13;;;;;;;44.78;22.63;;;5.90;99.90;;;;;;5046397;28;20119;-65
2022/01/26 18:51:37;;;;;;;47.80;24.10;;;5.80;99.90;;;;;;5044592;28;20041;-64
2022/01/26 18:54:05;;;;;;;45.85;24.88;;;5.80;99.90;;;;;;5047540;28;20287;-64
2022/01/26 18:56:31;;;;;;;49.40;25.00;;;5.80;99.90;;;;;;5046491;28;20072;-64
2022/01/26 18:58:57;;;;;;;46.53;23.95;;;5.90;99.90;;;;;;5041633;28;20445;-64
2022/01/26 19:01:23;;;;;;;51.72;26.60;;;5.80;99.90;;;;;;5040511;28;20132;-66
2022/01/26 19:03:48;;;;;;;44.63;24.40;;;5.80;99.90;;;;;;5042912;28;20064;-65
2022/01/26 19:06:14;;;;;;;50.20;25.63;;;5.80;99.90;;;;;;5042204;28;20102;-64
2022/01/26 19:08:41;;;;;;;50.85;27.30;;;5.80;99.90;;;;;;5041430;28;20043;-65
2022/01/26 19:11:11;;;;;;;52.30;25.88;;;5.80;99.90;;;;;;5043683;28;20634;-66
2022/01/26 19:13:38;;;;;;;47.35;26.75;;;5.80;99.90;;;;;;5050270;28;20517;-65
2022/01/26 19:16:18;;;;;;;52.97;27.17;;;5.80;99.90;;;;;;5051239;28;20132;-65
2022/01/26 19:18:54;;;;;;;49.78;26.50;;;5.80;99.90;;;;;;5048723;28;20033;-65
2022/01/26 19:21:41;;;;;;;51.38;27.30;;;5.80;99.90;;;;;;5048926;28;20044;-64
2022/01/26 19:24:39;;;;;;;54.72;28.48;;;5.80;99.90;;;;;;5047790;28;20041;-67
2022/01/26 19:27:17;;;;;;;52.25;27.85;;;5.80;99.90;;;;;;5048336;28;20115;-66